sensor_id;sensor_type;location;lat;lon;timestamp;P1;durP1;ratioP1;P2;durP2;ratioP2
63259;SDS011;49390;51.380;0.098;2023-06-22T00:01:39;16.08;;;5.82;;
63259;SDS011;49390;51.380;0.098;2023-06-22T00:04:09;9.93;;;5.43;;
63259;SDS011;49390;51.380;0.098;2023-06-22T00:06:40;13.32;;;5.95;;
63259;SDS011;49390;51.380;0.098;2023-06-22T00:09:11;8.97;;;5.07;;
63259;SDS011;49390;51.380;0.098;2023-06-22T00:11:41;10.35;;;4.93;;
63259;SDS011;49390;51.380;0.098;2023-06-22T00:14:12;9.50;;;4.88;;
63259;SDS011;49390;51.380;0.098;2023-06-22T00:16:45;10.00;;;5.63;;
63259;SDS011;49390;51.380;0.098;2023-06-22T00:19:18;9.83;;;5.30;;
63259;SDS011;49390;51.380;0.098;2023-06-22T00:21:52;9.68;;;5.32;;
63259;SDS011;49390;51.380;0.098;2023-06-22T00:26:51;9.10;;;5.10;;
63259;SDS011;49390;51.380;0.098;2023-06-22T00:29:19;10.93;;;5.20;;
63259;SDS011;49390;51.380;0.098;2023-06-22T00:31:50;8.95;;;5.03;;
63259;SDS011;49390;51.380;0.098;2023-06-22T00:34:18;9.75;;;5.20;;
63259;SDS011;49390;51.380;0.098;2023-06-22T00:36:49;10.63;;;5.43;;
63259;SDS011;49390;51.380;0.098;2023-06-22T00:39:24;10.05;;;5.45;;
63259;SDS011;49390;51.380;0.098;2023-06-22T00:41:55;11.32;;;5.20;;
63259;SDS011;49390;51.380;0.098;2023-06-22T00:44:26;9.32;;;5.63;;
63259;SDS011;49390;51.380;0.098;2023-06-22T00:46:54;10.55;;;5.93;;
63259;SDS011;49390;51.380;0.098;2023-06-22T00:49:30;9.52;;;5.40;;
63259;SDS011;49390;51.380;0.098;2023-06-22T00:51:58;10.25;;;5.53;;
63259;SDS011;49390;51.380;0.098;2023-06-22T00:54:27;9.85;;;5.30;;
63259;SDS011;49390;51.380;0.098;2023-06-22T00:56:56;9.30;;;5.70;;
63259;SDS011;49390;51.380;0.098;2023-06-22T00:59:25;8.95;;;5.90;;
63259;SDS011;49390;51.380;0.098;2023-06-22T01:01:58;9.63;;;5.25;;
63259;SDS011;49390;51.380;0.098;2023-06-22T01:04:34;10.48;;;5.30;;
63259;SDS011;49390;51.380;0.098;2023-06-22T01:12:31;8.52;;;5.55;;
63259;SDS011;49390;51.380;0.098;2023-06-22T01:15:16;10.10;;;4.93;;
63259;SDS011;49390;51.380;0.098;2023-06-22T01:17:50;10.02;;;5.35;;
63259;SDS011;49390;51.380;0.098;2023-06-22T01:20:20;9.23;;;5.32;;
63259;SDS011;49390;51.380;0.098;2023-06-22T01:25:46;11.70;;;5.32;;
63259;SDS011;49390;51.380;0.098;2023-06-22T01:31:58;12.27;;;5.35;;
63259;SDS011;49390;51.380;0.098;2023-06-22T01:34:29;10.70;;;5.95;;
63259;SDS011;49390;51.380;0.098;2023-06-22T01:37:05;9.77;;;5.35;;
63259;SDS011;49390;51.380;0.098;2023-06-22T01:39:35;10.40;;;5.45;;
63259;SDS011;49390;51.380;0.098;2023-06-22T01:42:03;9.80;;;5.75;;
63259;SDS011;49390;51.380;0.098;2023-06-22T01:44:33;9.07;;;5.78;;
63259;SDS011;49390;51.380;0.098;2023-06-22T01:47:02;8.00;;;4.38;;
63259;SDS011;49390;51.380;0.098;2023-06-22T01:49:30;9.60;;;5.25;;
63259;SDS011;49390;51.380;0.098;2023-06-22T01:51:58;9.63;;;5.38;;
63259;SDS011;49390;51.380;0.098;2023-06-22T01:54:31;10.20;;;4.88;;
63259;SDS011;49390;51.380;0.098;2023-06-22T01:57:02;10.45;;;5.65;;
63259;SDS011;49390;51.380;0.098;2023-06-22T01:59:34;12.25;;;5.30;;
63259;SDS011;49390;51.380;0.098;2023-06-22T02:02:07;11.27;;;5.38;;
63259;SDS011;49390;51.380;0.098;2023-06-22T02:04:44;9.52;;;5.68;;
63259;SDS011;49390;51.380;0.098;2023-06-22T02:07:18;10.43;;;5.20;;
63259;SDS011;49390;51.380;0.098;2023-06-22T02:09:49;9.98;;;5.18;;
63259;SDS011;49390;51.380;0.098;2023-06-22T02:12:22;9.13;;;5.00;;
63259;SDS011;49390;51.380;0.098;2023-06-22T02:14:55;9.98;;;5.43;;
63259;SDS011;49390;51.380;0.098;2023-06-22T02:17:30;9.45;;;5.65;;
63259;SDS011;49390;51.380;0.098;2023-06-22T02:20:06;9.45;;;5.50;;
63259;SDS011;49390;51.380;0.098;2023-06-22T02:22:41;11.25;;;5.50;;
63259;SDS011;49390;51.380;0.098;2023-06-22T02:25:12;9.77;;;5.22;;
63259;SDS011;49390;51.380;0.098;2023-06-22T02:27:45;10.90;;;5.53;;
63259;SDS011;49390;51.380;0.098;2023-06-22T02:30:16;11.45;;;5.15;;
63259;SDS011;49390;51.380;0.098;2023-06-22T02:32:44;8.80;;;5.30;;
63259;SDS011;49390;51.380;0.098;2023-06-22T02:35:18;9.48;;;5.35;;
63259;SDS011;49390;51.380;0.098;2023-06-22T02:37:48;15.93;;;5.35;;
63259;SDS011;49390;51.380;0.098;2023-06-22T02:40:19;8.30;;;4.85;;
63259;SDS011;49390;51.380;0.098;2023-06-22T02:42:47;9.45;;;5.63;;
63259;SDS011;49390;51.380;0.098;2023-06-22T02:45:20;11.20;;;5.50;;
63259;SDS011;49390;51.380;0.098;2023-06-22T02:47:51;9.45;;;5.32;;
63259;SDS011;49390;51.380;0.098;2023-06-22T02:50:19;10.05;;;5.25;;
63259;SDS011;49390;51.380;0.098;2023-06-22T02:52:50;8.15;;;5.10;;
63259;SDS011;49390;51.380;0.098;2023-06-22T02:55:23;10.00;;;5.63;;
63259;SDS011;49390;51.380;0.098;2023-06-22T02:58:00;9.15;;;5.18;;
63259;SDS011;49390;51.380;0.098;2023-06-22T03:00:35;10.45;;;5.50;;
63259;SDS011;49390;51.380;0.098;2023-06-22T03:03:05;11.80;;;6.15;;
63259;SDS011;49390;51.380;0.098;2023-06-22T03:05:39;8.88;;;5.45;;
63259;SDS011;49390;51.380;0.098;2023-06-22T03:08:08;8.63;;;5.40;;
63259;SDS011;49390;51.380;0.098;2023-06-22T03:10:38;9.73;;;5.47;;
63259;SDS011;49390;51.380;0.098;2023-06-22T03:13:06;10.55;;;5.82;;
63259;SDS011;49390;51.380;0.098;2023-06-22T03:15:38;8.25;;;4.93;;
63259;SDS011;49390;51.380;0.098;2023-06-22T03:18:08;8.23;;;5.45;;
63259;SDS011;49390;51.380;0.098;2023-06-22T03:20:36;9.30;;;5.20;;
63259;SDS011;49390;51.380;0.098;2023-06-22T03:23:05;9.20;;;5.50;;
63259;SDS011;49390;51.380;0.098;2023-06-22T03:25:33;8.52;;;5.00;;
63259;SDS011;49390;51.380;0.098;2023-06-22T03:28:02;10.23;;;5.10;;
63259;SDS011;49390;51.380;0.098;2023-06-22T03:30:33;9.43;;;5.50;;
63259;SDS011;49390;51.380;0.098;2023-06-22T03:33:01;10.20;;;5.40;;
63259;SDS011;49390;51.380;0.098;2023-06-22T03:35:30;10.27;;;5.45;;
63259;SDS011;49390;51.380;0.098;2023-06-22T03:38:00;8.90;;;5.40;;
63259;SDS011;49390;51.380;0.098;2023-06-22T03:40:34;8.60;;;5.03;;
63259;SDS011;49390;51.380;0.098;2023-06-22T03:43:02;10.85;;;5.70;;
63259;SDS011;49390;51.380;0.098;2023-06-22T03:45:30;10.35;;;5.88;;
63259;SDS011;49390;51.380;0.098;2023-06-22T03:47:58;9.93;;;5.80;;
63259;SDS011;49390;51.380;0.098;2023-06-22T03:50:29;10.25;;;5.43;;
63259;SDS011;49390;51.380;0.098;2023-06-22T03:55:31;12.02;;;5.85;;
63259;SDS011;49390;51.380;0.098;2023-06-22T03:58:03;10.27;;;6.00;;
63259;SDS011;49390;51.380;0.098;2023-06-22T04:00:33;11.13;;;5.45;;
63259;SDS011;49390;51.380;0.098;2023-06-22T04:03:01;9.70;;;5.65;;
63259;SDS011;49390;51.380;0.098;2023-06-22T04:05:30;10.48;;;5.53;;
63259;SDS011;49390;51.380;0.098;2023-06-22T04:08:00;10.32;;;5.47;;
63259;SDS011;49390;51.380;0.098;2023-06-22T04:10:29;10.35;;;5.43;;
63259;SDS011;49390;51.380;0.098;2023-06-22T04:12:58;9.30;;;5.63;;
63259;SDS011;49390;51.380;0.098;2023-06-22T04:17:57;8.73;;;5.30;;
63259;SDS011;49390;51.380;0.098;2023-06-22T04:20:25;10.48;;;5.75;;
63259;SDS011;49390;51.380;0.098;2023-06-22T04:22:56;14.30;;;5.78;;
63259;SDS011;49390;51.380;0.098;2023-06-22T04:25:27;10.85;;;5.60;;
63259;SDS011;49390;51.380;0.098;2023-06-22T04:28:00;9.93;;;5.13;;
63259;SDS011;49390;51.380;0.098;2023-06-22T04:30:33;9.60;;;5.15;;
63259;SDS011;49390;51.380;0.098;2023-06-22T04:33:01;10.07;;;5.20;;
63259;SDS011;49390;51.380;0.098;2023-06-22T04:35:30;8.85;;;4.80;;
63259;SDS011;49390;51.380;0.098;2023-06-22T04:37:58;9.73;;;5.35;;
63259;SDS011;49390;51.380;0.098;2023-06-22T04:40:26;8.82;;;4.95;;
63259;SDS011;49390;51.380;0.098;2023-06-22T04:43:02;9.65;;;5.55;;
63259;SDS011;49390;51.380;0.098;2023-06-22T04:45:30;9.32;;;5.03;;
63259;SDS011;49390;51.380;0.098;2023-06-22T04:48:00;9.00;;;5.05;;
63259;SDS011;49390;51.380;0.098;2023-06-22T04:50:29;9.95;;;5.68;;
63259;SDS011;49390;51.380;0.098;2023-06-22T04:53:00;8.98;;;4.97;;
63259;SDS011;49390;51.380;0.098;2023-06-22T04:55:32;9.77;;;5.53;;
63259;SDS011;49390;51.380;0.098;2023-06-22T04:58:00;10.07;;;6.03;;
63259;SDS011;49390;51.380;0.098;2023-06-22T05:00:37;12.02;;;6.03;;
63259;SDS011;49390;51.380;0.098;2023-06-22T05:03:12;11.27;;;6.10;;
63259;SDS011;49390;51.380;0.098;2023-06-22T05:05:47;12.00;;;5.93;;
63259;SDS011;49390;51.380;0.098;2023-06-22T05:08:16;9.82;;;5.88;;
63259;SDS011;49390;51.380;0.098;2023-06-22T05:10:45;11.48;;;5.68;;
63259;SDS011;49390;51.380;0.098;2023-06-22T05:13:31;12.55;;;6.57;;
63259;SDS011;49390;51.380;0.098;2023-06-22T05:16:00;12.80;;;5.97;;
63259;SDS011;49390;51.380;0.098;2023-06-22T05:18:32;10.73;;;5.60;;
63259;SDS011;49390;51.380;0.098;2023-06-22T05:21:00;10.70;;;6.38;;
63259;SDS011;49390;51.380;0.098;2023-06-22T05:23:36;11.18;;;6.38;;
63259;SDS011;49390;51.380;0.098;2023-06-22T05:26:06;12.07;;;6.07;;
63259;SDS011;49390;51.380;0.098;2023-06-22T05:28:37;12.48;;;6.78;;
63259;SDS011;49390;51.380;0.098;2023-06-22T05:31:05;10.68;;;5.57;;
63259;SDS011;49390;51.380;0.098;2023-06-22T05:33:33;12.65;;;6.03;;
63259;SDS011;49390;51.380;0.098;2023-06-22T05:36:04;10.27;;;5.60;;
63259;SDS011;49390;51.380;0.098;2023-06-22T05:38:35;10.95;;;6.32;;
63259;SDS011;49390;51.380;0.098;2023-06-22T05:41:08;13.18;;;6.38;;
63259;SDS011;49390;51.380;0.098;2023-06-22T05:43:37;12.30;;;6.13;;
63259;SDS011;49390;51.380;0.098;2023-06-22T05:46:09;10.80;;;6.13;;
63259;SDS011;49390;51.380;0.098;2023-06-22T05:48:40;10.97;;;6.40;;
63259;SDS011;49390;51.380;0.098;2023-06-22T05:51:10;13.67;;;6.37;;
63259;SDS011;49390;51.380;0.098;2023-06-22T05:53:48;11.93;;;6.22;;
63259;SDS011;49390;51.380;0.098;2023-06-22T05:56:17;11.90;;;6.00;;
63259;SDS011;49390;51.380;0.098;2023-06-22T05:58:45;10.75;;;5.93;;
63259;SDS011;49390;51.380;0.098;2023-06-22T06:01:16;11.95;;;6.28;;
63259;SDS011;49390;51.380;0.098;2023-06-22T06:03:45;9.98;;;5.68;;
63259;SDS011;49390;51.380;0.098;2023-06-22T06:06:13;10.57;;;5.85;;
63259;SDS011;49390;51.380;0.098;2023-06-22T06:08:41;10.35;;;5.85;;
63259;SDS011;49390;51.380;0.098;2023-06-22T06:11:12;12.65;;;6.32;;
63259;SDS011;49390;51.380;0.098;2023-06-22T06:13:42;11.35;;;6.32;;
63259;SDS011;49390;51.380;0.098;2023-06-22T06:16:13;11.27;;;6.43;;
63259;SDS011;49390;51.380;0.098;2023-06-22T06:18:43;11.70;;;6.40;;
63259;SDS011;49390;51.380;0.098;2023-06-22T06:21:11;14.68;;;6.80;;
63259;SDS011;49390;51.380;0.098;2023-06-22T06:23:40;12.25;;;6.40;;
63259;SDS011;49390;51.380;0.098;2023-06-22T06:26:11;12.98;;;6.60;;
63259;SDS011;49390;51.380;0.098;2023-06-22T06:28:39;13.40;;;6.80;;
63259;SDS011;49390;51.380;0.098;2023-06-22T06:31:09;12.50;;;6.10;;
63259;SDS011;49390;51.380;0.098;2023-06-22T06:33:39;15.48;;;7.05;;
63259;SDS011;49390;51.380;0.098;2023-06-22T06:38:39;9.82;;;6.55;;
63259;SDS011;49390;51.380;0.098;2023-06-22T06:41:09;10.40;;;6.13;;
63259;SDS011;49390;51.380;0.098;2023-06-22T06:43:37;13.57;;;6.05;;
63259;SDS011;49390;51.380;0.098;2023-06-22T06:46:06;13.52;;;6.97;;
63259;SDS011;49390;51.380;0.098;2023-06-22T06:48:37;12.75;;;6.93;;
63259;SDS011;49390;51.380;0.098;2023-06-22T06:51:05;9.32;;;6.55;;
63259;SDS011;49390;51.380;0.098;2023-06-22T06:53:41;11.50;;;6.38;;
63259;SDS011;49390;51.380;0.098;2023-06-22T06:56:12;13.55;;;6.50;;
63259;SDS011;49390;51.380;0.098;2023-06-22T06:58:43;10.48;;;6.68;;
63259;SDS011;49390;51.380;0.098;2023-06-22T07:01:13;10.45;;;6.43;;
63259;SDS011;49390;51.380;0.098;2023-06-22T07:03:41;10.80;;;6.35;;
63259;SDS011;49390;51.380;0.098;2023-06-22T07:06:12;10.45;;;5.88;;
63259;SDS011;49390;51.380;0.098;2023-06-22T07:08:46;10.88;;;5.88;;
63259;SDS011;49390;51.380;0.098;2023-06-22T07:11:15;10.48;;;6.22;;
63259;SDS011;49390;51.380;0.098;2023-06-22T07:13:45;12.18;;;6.65;;
63259;SDS011;49390;51.380;0.098;2023-06-22T07:16:16;10.43;;;6.22;;
63259;SDS011;49390;51.380;0.098;2023-06-22T07:18:46;9.55;;;5.85;;
63259;SDS011;49390;51.380;0.098;2023-06-22T07:21:14;11.63;;;5.72;;
63259;SDS011;49390;51.380;0.098;2023-06-22T07:23:43;10.68;;;6.25;;
63259;SDS011;49390;51.380;0.098;2023-06-22T07:26:11;13.30;;;6.57;;
63259;SDS011;49390;51.380;0.098;2023-06-22T07:28:43;11.05;;;6.47;;
63259;SDS011;49390;51.380;0.098;2023-06-22T07:31:14;10.90;;;6.03;;
63259;SDS011;49390;51.380;0.098;2023-06-22T07:33:42;8.88;;;5.88;;
63259;SDS011;49390;51.380;0.098;2023-06-22T07:36:10;10.35;;;6.72;;
63259;SDS011;49390;51.380;0.098;2023-06-22T07:38:38;10.43;;;6.82;;
63259;SDS011;49390;51.380;0.098;2023-06-22T07:41:09;9.27;;;5.80;;
63259;SDS011;49390;51.380;0.098;2023-06-22T07:43:45;9.73;;;6.03;;
63259;SDS011;49390;51.380;0.098;2023-06-22T07:46:14;11.90;;;5.78;;
63259;SDS011;49390;51.380;0.098;2023-06-22T07:48:43;10.57;;;6.32;;
63259;SDS011;49390;51.380;0.098;2023-06-22T07:51:12;9.48;;;6.28;;
63259;SDS011;49390;51.380;0.098;2023-06-22T07:53:44;10.00;;;6.07;;
63259;SDS011;49390;51.380;0.098;2023-06-22T07:56:13;10.15;;;5.63;;
63259;SDS011;49390;51.380;0.098;2023-06-22T07:58:46;10.90;;;6.22;;
63259;SDS011;49390;51.380;0.098;2023-06-22T08:01:18;10.48;;;6.15;;
63259;SDS011;49390;51.380;0.098;2023-06-22T08:03:48;8.85;;;6.13;;
63259;SDS011;49390;51.380;0.098;2023-06-22T08:06:19;9.43;;;6.05;;
63259;SDS011;49390;51.380;0.098;2023-06-22T08:08:50;9.93;;;6.13;;
63259;SDS011;49390;51.380;0.098;2023-06-22T08:11:22;10.50;;;5.78;;
63259;SDS011;49390;51.380;0.098;2023-06-22T08:13:52;11.48;;;6.20;;
63259;SDS011;49390;51.380;0.098;2023-06-22T08:16:23;11.27;;;6.32;;
63259;SDS011;49390;51.380;0.098;2023-06-22T08:18:55;11.25;;;5.90;;
63259;SDS011;49390;51.380;0.098;2023-06-22T08:21:26;8.85;;;5.65;;
63259;SDS011;49390;51.380;0.098;2023-06-22T08:23:54;11.32;;;6.10;;
63259;SDS011;49390;51.380;0.098;2023-06-22T08:26:25;10.32;;;5.55;;
63259;SDS011;49390;51.380;0.098;2023-06-22T08:28:55;11.43;;;6.22;;
63259;SDS011;49390;51.380;0.098;2023-06-22T08:31:26;9.65;;;5.90;;
63259;SDS011;49390;51.380;0.098;2023-06-22T08:33:55;7.45;;;5.80;;
63259;SDS011;49390;51.380;0.098;2023-06-22T08:36:25;9.68;;;5.90;;
63259;SDS011;49390;51.380;0.098;2023-06-22T08:38:57;12.35;;;6.80;;
63259;SDS011;49390;51.380;0.098;2023-06-22T08:41:30;8.57;;;5.60;;
63259;SDS011;49390;51.380;0.098;2023-06-22T08:44:01;9.70;;;5.65;;
63259;SDS011;49390;51.380;0.098;2023-06-22T08:46:34;10.25;;;5.70;;
63259;SDS011;49390;51.380;0.098;2023-06-22T08:49:02;8.27;;;5.72;;
63259;SDS011;49390;51.380;0.098;2023-06-22T08:51:34;8.85;;;5.72;;
63259;SDS011;49390;51.380;0.098;2023-06-22T08:54:03;8.95;;;5.80;;
63259;SDS011;49390;51.380;0.098;2023-06-22T08:56:32;10.85;;;5.43;;
63259;SDS011;49390;51.380;0.098;2023-06-22T08:59:04;8.75;;;5.35;;
63259;SDS011;49390;51.380;0.098;2023-06-22T09:01:38;9.63;;;5.95;;
63259;SDS011;49390;51.380;0.098;2023-06-22T09:04:08;9.68;;;5.55;;
63259;SDS011;49390;51.380;0.098;2023-06-22T09:06:42;9.77;;;5.75;;
63259;SDS011;49390;51.380;0.098;2023-06-22T09:09:13;10.15;;;5.95;;
63259;SDS011;49390;51.380;0.098;2023-06-22T09:11:46;8.73;;;5.43;;
63259;SDS011;49390;51.380;0.098;2023-06-22T09:14:15;8.98;;;5.30;;
63259;SDS011;49390;51.380;0.098;2023-06-22T09:16:46;9.35;;;5.63;;
63259;SDS011;49390;51.380;0.098;2023-06-22T09:19:14;9.27;;;6.03;;
63259;SDS011;49390;51.380;0.098;2023-06-22T09:21:44;6.95;;;4.95;;
63259;SDS011;49390;51.380;0.098;2023-06-22T09:24:15;9.77;;;5.47;;
63259;SDS011;49390;51.380;0.098;2023-06-22T09:26:46;9.80;;;5.72;;
63259;SDS011;49390;51.380;0.098;2023-06-22T09:29:14;8.68;;;5.95;;
63259;SDS011;49390;51.380;0.098;2023-06-22T09:31:44;9.85;;;7.20;;
63259;SDS011;49390;51.380;0.098;2023-06-22T09:34:14;10.93;;;5.15;;
63259;SDS011;49390;51.380;0.098;2023-06-22T09:36:46;9.27;;;5.72;;
63259;SDS011;49390;51.380;0.098;2023-06-22T09:41:50;8.02;;;4.10;;
63259;SDS011;49390;51.380;0.098;2023-06-22T09:46:47;7.15;;;4.93;;
63259;SDS011;49390;51.380;0.098;2023-06-22T09:49:15;10.27;;;5.07;;
63259;SDS011;49390;51.380;0.098;2023-06-22T09:51:45;8.10;;;4.78;;
63259;SDS011;49390;51.380;0.098;2023-06-22T09:54:16;11.02;;;5.07;;
63259;SDS011;49390;51.380;0.098;2023-06-22T09:56:49;9.10;;;5.40;;
63259;SDS011;49390;51.380;0.098;2023-06-22T09:59:17;9.07;;;5.05;;
63259;SDS011;49390;51.380;0.098;2023-06-22T10:01:47;7.40;;;5.20;;
63259;SDS011;49390;51.380;0.098;2023-06-22T10:04:15;8.52;;;5.25;;
63259;SDS011;49390;51.380;0.098;2023-06-22T10:09:17;10.95;;;5.43;;
63259;SDS011;49390;51.380;0.098;2023-06-22T10:11:45;8.88;;;5.40;;
63259;SDS011;49390;51.380;0.098;2023-06-22T10:14:13;10.43;;;5.32;;
63259;SDS011;49390;51.380;0.098;2023-06-22T10:16:45;9.63;;;5.43;;
63259;SDS011;49390;51.380;0.098;2023-06-22T10:19:13;8.60;;;4.97;;
63259;SDS011;49390;51.380;0.098;2023-06-22T10:24:11;10.43;;;5.40;;
63259;SDS011;49390;51.380;0.098;2023-06-22T10:26:42;7.97;;;5.25;;
63259;SDS011;49390;51.380;0.098;2023-06-22T10:29:10;8.43;;;5.35;;
63259;SDS011;49390;51.380;0.098;2023-06-22T10:31:44;8.38;;;5.28;;
63259;SDS011;49390;51.380;0.098;2023-06-22T10:34:14;14.15;;;5.95;;
63259;SDS011;49390;51.380;0.098;2023-06-22T10:36:45;7.20;;;4.53;;
63259;SDS011;49390;51.380;0.098;2023-06-22T10:39:16;7.75;;;4.70;;
63259;SDS011;49390;51.380;0.098;2023-06-22T10:41:44;9.90;;;4.88;;
63259;SDS011;49390;51.380;0.098;2023-06-22T10:44:14;8.25;;;4.63;;
63259;SDS011;49390;51.380;0.098;2023-06-22T10:46:43;9.52;;;4.90;;
63259;SDS011;49390;51.380;0.098;2023-06-22T10:49:11;7.78;;;4.30;;
63259;SDS011;49390;51.380;0.098;2023-06-22T10:51:39;9.13;;;4.90;;
63259;SDS011;49390;51.380;0.098;2023-06-22T10:54:07;13.32;;;5.03;;
63259;SDS011;49390;51.380;0.098;2023-06-22T10:56:38;8.18;;;4.63;;
63259;SDS011;49390;51.380;0.098;2023-06-22T10:59:06;10.93;;;4.60;;
63259;SDS011;49390;51.380;0.098;2023-06-22T11:01:37;8.73;;;4.82;;
63259;SDS011;49390;51.380;0.098;2023-06-22T11:04:05;8.50;;;5.00;;
63259;SDS011;49390;51.380;0.098;2023-06-22T11:09:11;7.60;;;4.55;;
63259;SDS011;49390;51.380;0.098;2023-06-22T11:11:44;8.15;;;4.57;;
63259;SDS011;49390;51.380;0.098;2023-06-22T11:14:16;7.38;;;4.57;;
63259;SDS011;49390;51.380;0.098;2023-06-22T11:16:47;7.70;;;4.38;;
63259;SDS011;49390;51.380;0.098;2023-06-22T11:19:18;10.15;;;4.93;;
63259;SDS011;49390;51.380;0.098;2023-06-22T11:21:54;9.23;;;4.60;;
63259;SDS011;49390;51.380;0.098;2023-06-22T11:24:28;7.32;;;5.25;;
63259;SDS011;49390;51.380;0.098;2023-06-22T11:26:59;6.93;;;4.30;;
63259;SDS011;49390;51.380;0.098;2023-06-22T11:29:29;9.75;;;4.80;;
63259;SDS011;49390;51.380;0.098;2023-06-22T11:32:09;9.05;;;4.28;;
63259;SDS011;49390;51.380;0.098;2023-06-22T11:34:43;7.05;;;4.10;;
63259;SDS011;49390;51.380;0.098;2023-06-22T11:37:16;6.80;;;4.07;;
63259;SDS011;49390;51.380;0.098;2023-06-22T11:39:48;7.35;;;4.60;;
63259;SDS011;49390;51.380;0.098;2023-06-22T11:42:34;6.50;;;4.10;;
63259;SDS011;49390;51.380;0.098;2023-06-22T11:45:05;7.35;;;4.68;;
63259;SDS011;49390;51.380;0.098;2023-06-22T11:47:36;10.52;;;4.65;;
63259;SDS011;49390;51.380;0.098;2023-06-22T11:50:05;8.50;;;4.20;;
63259;SDS011;49390;51.380;0.098;2023-06-22T11:52:34;7.57;;;4.28;;
63259;SDS011;49390;51.380;0.098;2023-06-22T11:55:08;7.43;;;4.32;;
63259;SDS011;49390;51.380;0.098;2023-06-22T11:57:38;7.30;;;3.92;;
63259;SDS011;49390;51.380;0.098;2023-06-22T12:00:23;7.05;;;4.38;;
63259;SDS011;49390;51.380;0.098;2023-06-22T12:02:59;6.25;;;3.85;;
63259;SDS011;49390;51.380;0.098;2023-06-22T12:05:30;8.15;;;4.22;;
63259;SDS011;49390;51.380;0.098;2023-06-22T12:10:34;6.93;;;4.30;;
63259;SDS011;49390;51.380;0.098;2023-06-22T12:13:05;7.25;;;3.92;;
63259;SDS011;49390;51.380;0.098;2023-06-22T12:15:33;6.50;;;3.95;;
63259;SDS011;49390;51.380;0.098;2023-06-22T12:18:05;7.18;;;4.25;;
63259;SDS011;49390;51.380;0.098;2023-06-22T12:20:33;6.25;;;4.05;;
63259;SDS011;49390;51.380;0.098;2023-06-22T12:23:04;7.03;;;4.18;;
63259;SDS011;49390;51.380;0.098;2023-06-22T12:25:34;6.45;;;4.50;;
63259;SDS011;49390;51.380;0.098;2023-06-22T12:28:05;6.57;;;4.00;;
63259;SDS011;49390;51.380;0.098;2023-06-22T12:30:33;7.68;;;4.57;;
63259;SDS011;49390;51.380;0.098;2023-06-22T12:33:08;5.85;;;3.83;;
63259;SDS011;49390;51.380;0.098;2023-06-22T12:35:36;7.60;;;4.55;;
63259;SDS011;49390;51.380;0.098;2023-06-22T12:38:05;6.28;;;4.10;;
63259;SDS011;49390;51.380;0.098;2023-06-22T12:40:38;8.93;;;5.32;;
63259;SDS011;49390;51.380;0.098;2023-06-22T12:43:08;7.30;;;4.75;;
63259;SDS011;49390;51.380;0.098;2023-06-22T12:45:36;6.00;;;3.90;;
63259;SDS011;49390;51.380;0.098;2023-06-22T12:48:07;6.97;;;3.85;;
63259;SDS011;49390;51.380;0.098;2023-06-22T12:50:38;7.15;;;3.83;;
63259;SDS011;49390;51.380;0.098;2023-06-22T12:53:06;5.80;;;3.78;;
63259;SDS011;49390;51.380;0.098;2023-06-22T12:55:39;6.22;;;4.20;;
63259;SDS011;49390;51.380;0.098;2023-06-22T12:58:10;6.43;;;3.85;;
63259;SDS011;49390;51.380;0.098;2023-06-22T13:00:38;7.20;;;3.90;;
63259;SDS011;49390;51.380;0.098;2023-06-22T13:03:07;6.40;;;3.83;;
63259;SDS011;49390;51.380;0.098;2023-06-22T13:05:35;6.35;;;3.60;;
63259;SDS011;49390;51.380;0.098;2023-06-22T13:08:06;6.50;;;3.63;;
63259;SDS011;49390;51.380;0.098;2023-06-22T13:10:39;7.00;;;3.60;;
63259;SDS011;49390;51.380;0.098;2023-06-22T13:13:10;6.85;;;4.05;;
63259;SDS011;49390;51.380;0.098;2023-06-22T13:18:08;5.97;;;3.30;;
63259;SDS011;49390;51.380;0.098;2023-06-22T13:20:37;6.55;;;3.75;;
63259;SDS011;49390;51.380;0.098;2023-06-22T13:23:13;5.43;;;3.58;;
63259;SDS011;49390;51.380;0.098;2023-06-22T13:25:43;6.63;;;3.75;;
63259;SDS011;49390;51.380;0.098;2023-06-22T13:28:15;8.45;;;4.20;;
63259;SDS011;49390;51.380;0.098;2023-06-22T13:30:57;7.80;;;4.50;;
63259;SDS011;49390;51.380;0.098;2023-06-22T13:33:31;6.18;;;3.70;;
63259;SDS011;49390;51.380;0.098;2023-06-22T13:36:01;7.63;;;3.75;;
63259;SDS011;49390;51.380;0.098;2023-06-22T13:38:31;5.40;;;3.70;;
63259;SDS011;49390;51.380;0.098;2023-06-22T13:40:59;5.30;;;3.45;;
63259;SDS011;49390;51.380;0.098;2023-06-22T13:43:28;6.00;;;3.70;;
63259;SDS011;49390;51.380;0.098;2023-06-22T13:45:56;7.25;;;3.50;;
63259;SDS011;49390;51.380;0.098;2023-06-22T13:48:25;5.97;;;3.35;;
63259;SDS011;49390;51.380;0.098;2023-06-22T13:50:57;6.03;;;3.47;;
63259;SDS011;49390;51.380;0.098;2023-06-22T13:53:26;6.40;;;3.70;;
63259;SDS011;49390;51.380;0.098;2023-06-22T13:55:55;6.05;;;3.83;;
63259;SDS011;49390;51.380;0.098;2023-06-22T13:58:24;5.47;;;3.13;;
63259;SDS011;49390;51.380;0.098;2023-06-22T14:00:59;5.80;;;3.53;;
63259;SDS011;49390;51.380;0.098;2023-06-22T14:03:27;6.80;;;3.58;;
63259;SDS011;49390;51.380;0.098;2023-06-22T14:06:00;6.63;;;3.85;;
63259;SDS011;49390;51.380;0.098;2023-06-22T14:08:32;5.10;;;3.17;;
63259;SDS011;49390;51.380;0.098;2023-06-22T14:11:07;6.50;;;3.08;;
63259;SDS011;49390;51.380;0.098;2023-06-22T14:13:38;5.55;;;3.28;;
63259;SDS011;49390;51.380;0.098;2023-06-22T14:16:06;6.10;;;3.47;;
63259;SDS011;49390;51.380;0.098;2023-06-22T14:18:35;6.00;;;3.45;;
63259;SDS011;49390;51.380;0.098;2023-06-22T14:21:05;7.25;;;3.60;;
63259;SDS011;49390;51.380;0.098;2023-06-22T14:23:36;5.45;;;3.45;;
63259;SDS011;49390;51.380;0.098;2023-06-22T14:26:06;5.93;;;3.40;;
63259;SDS011;49390;51.380;0.098;2023-06-22T14:28:39;5.53;;;3.38;;
63259;SDS011;49390;51.380;0.098;2023-06-22T14:31:07;7.13;;;3.45;;
63259;SDS011;49390;51.380;0.098;2023-06-22T14:33:35;7.35;;;3.95;;
63259;SDS011;49390;51.380;0.098;2023-06-22T14:36:03;6.32;;;3.55;;
63259;SDS011;49390;51.380;0.098;2023-06-22T14:41:04;6.15;;;3.75;;
63259;SDS011;49390;51.380;0.098;2023-06-22T14:43:45;6.05;;;3.55;;
63259;SDS011;49390;51.380;0.098;2023-06-22T14:46:23;5.90;;;3.83;;
63259;SDS011;49390;51.380;0.098;2023-06-22T14:48:56;5.35;;;3.20;;
63259;SDS011;49390;51.380;0.098;2023-06-22T14:51:25;5.28;;;3.10;;
63259;SDS011;49390;51.380;0.098;2023-06-22T14:53:57;6.07;;;3.28;;
63259;SDS011;49390;51.380;0.098;2023-06-22T14:56:28;6.03;;;3.30;;
63259;SDS011;49390;51.380;0.098;2023-06-22T14:58:59;5.45;;;3.67;;
63259;SDS011;49390;51.380;0.098;2023-06-22T15:01:29;6.55;;;3.70;;
63259;SDS011;49390;51.380;0.098;2023-06-22T15:04:00;7.28;;;3.42;;
63259;SDS011;49390;51.380;0.098;2023-06-22T15:06:28;5.75;;;3.40;;
63259;SDS011;49390;51.380;0.098;2023-06-22T15:08:56;5.20;;;3.38;;
63259;SDS011;49390;51.380;0.098;2023-06-22T15:11:24;5.80;;;3.38;;
63259;SDS011;49390;51.380;0.098;2023-06-22T15:13:52;6.97;;;3.50;;
63259;SDS011;49390;51.380;0.098;2023-06-22T15:16:20;5.28;;;3.67;;
63259;SDS011;49390;51.380;0.098;2023-06-22T15:18:51;7.63;;;3.40;;
63259;SDS011;49390;51.380;0.098;2023-06-22T15:21:19;5.40;;;3.65;;
63259;SDS011;49390;51.380;0.098;2023-06-22T15:23:50;5.57;;;3.33;;
63259;SDS011;49390;51.380;0.098;2023-06-22T15:26:18;6.68;;;3.25;;
63259;SDS011;49390;51.380;0.098;2023-06-22T15:28:51;5.18;;;3.20;;
63259;SDS011;49390;51.380;0.098;2023-06-22T15:31:21;6.55;;;3.55;;
63259;SDS011;49390;51.380;0.098;2023-06-22T15:33:49;4.70;;;3.15;;
63259;SDS011;49390;51.380;0.098;2023-06-22T15:36:17;6.93;;;3.55;;
63259;SDS011;49390;51.380;0.098;2023-06-22T15:38:48;5.85;;;3.13;;
63259;SDS011;49390;51.380;0.098;2023-06-22T15:41:19;6.00;;;3.47;;
63259;SDS011;49390;51.380;0.098;2023-06-22T15:43:47;5.75;;;3.58;;
63259;SDS011;49390;51.380;0.098;2023-06-22T15:46:16;5.38;;;3.35;;